Mazatlan, SIN, Mexico
Current Conditions -  °F | °C
As of 2:42 AM on Saturday 25 Oct 2014 (Local Time) from MMMZ Reporting Station
Clear Clear  
Wind Chill: 72°   Ceiling: Unl
Heat Index: 72°   Visibility: 10mi
Dew Point: 70°   Wind: 0mph
Humidity: 94%   Direction: NA
Pressure: 29.88"   Gusts: NA
Location:  23.22°N, 106.42°W
Report Text: MMMZ 250842Z 00000KT 10SM SKC 22/21 A2988 RMK SLP122 57003 903 HZY
Loading
Personal Weather Stations






























Interactive Weather Map
Tropical Storm Tracking
New forecast layout! Learn more

10-Day Weather Forecast

Advertisements
Track Severe Weather on mobile